sensor_id;sensor_type;location;lat;lon;timestamp;pressure;altitude;pressure_sealevel;temperature
19282;BMP180;9774;52.034;5.342;2023-02-26T00:01:36;101690.00;;;7.60
19282;BMP180;9774;52.034;5.342;2023-02-26T00:04:05;101690.00;;;7.60
19282;BMP180;9774;52.034;5.342;2023-02-26T00:06:34;101692.00;;;7.60
19282;BMP180;9774;52.034;5.342;2023-02-26T00:09:03;101687.00;;;7.60
19282;BMP180;9774;52.034;5.342;2023-02-26T00:11:31;101695.00;;;7.70
19282;BMP180;9774;52.034;5.342;2023-02-26T00:14:00;101692.00;;;7.70
19282;BMP180;9774;52.034;5.342;2023-02-26T00:16:30;101695.00;;;7.70
19282;BMP180;9774;52.034;5.342;2023-02-26T00:18:59;101698.00;;;7.80
19282;BMP180;9774;52.034;5.342;2023-02-26T00:21:28;101706.00;;;7.80
19282;BMP180;9774;52.034;5.342;2023-02-26T00:23:56;101704.00;;;7.80
19282;BMP180;9774;52.034;5.342;2023-02-26T00:26:26;101711.00;;;7.80
19282;BMP180;9774;52.034;5.342;2023-02-26T00:28:55;101716.00;;;7.80
19282;BMP180;9774;52.034;5.342;2023-02-26T00:31:24;101718.00;;;7.80
19282;BMP180;9774;52.034;5.342;2023-02-26T00:33:53;101736.00;;;7.80
19282;BMP180;9774;52.034;5.342;2023-02-26T00:36:23;101738.00;;;7.80
19282;BMP180;9774;52.034;5.342;2023-02-26T00:39:01;101738.00;;;7.70
19282;BMP180;9774;52.034;5.342;2023-02-26T00:41:32;101747.00;;;7.80
19282;BMP180;9774;52.034;5.342;2023-02-26T00:44:01;101760.00;;;7.80
19282;BMP180;9774;52.034;5.342;2023-02-26T00:46:37;101754.00;;;7.70
19282;BMP180;9774;52.034;5.342;2023-02-26T00:49:13;101765.00;;;7.80
19282;BMP180;9774;52.034;5.342;2023-02-26T00:51:47;101762.00;;;7.70
19282;BMP180;9774;52.034;5.342;2023-02-26T00:54:19;101767.00;;;7.80
19282;BMP180;9774;52.034;5.342;2023-02-26T00:56:47;101763.00;;;7.80
19282;BMP180;9774;52.034;5.342;2023-02-26T00:59:15;101761.00;;;7.80
19282;BMP180;9774;52.034;5.342;2023-02-26T01:01:44;101759.00;;;7.80
19282;BMP180;9774;52.034;5.342;2023-02-26T01:04:13;101768.00;;;7.80
19282;BMP180;9774;52.034;5.342;2023-02-26T01:06:43;101753.00;;;7.80
19282;BMP180;9774;52.034;5.342;2023-02-26T01:09:17;101761.00;;;7.80
19282;BMP180;9774;52.034;5.342;2023-02-26T01:11:48;101762.00;;;7.80
19282;BMP180;9774;52.034;5.342;2023-02-26T01:14:16;101770.00;;;7.80
19282;BMP180;9774;52.034;5.342;2023-02-26T01:16:49;101762.00;;;7.80
19282;BMP180;9774;52.034;5.342;2023-02-26T01:19:24;101769.00;;;7.80
19282;BMP180;9774;52.034;5.342;2023-02-26T01:22:02;101759.00;;;7.80
19282;BMP180;9774;52.034;5.342;2023-02-26T01:24:30;101769.00;;;7.80
19282;BMP180;9774;52.034;5.342;2023-02-26T01:27:00;101782.00;;;7.80
19282;BMP180;9774;52.034;5.342;2023-02-26T01:29:28;101790.00;;;7.80
19282;BMP180;9774;52.034;5.342;2023-02-26T01:32:02;101785.00;;;7.80
19282;BMP180;9774;52.034;5.342;2023-02-26T01:34:36;101783.00;;;7.80
19282;BMP180;9774;52.034;5.342;2023-02-26T01:37:13;101789.00;;;7.80
19282;BMP180;9774;52.034;5.342;2023-02-26T01:39:46;101791.00;;;7.80
19282;BMP180;9774;52.034;5.342;2023-02-26T01:42:18;101791.00;;;7.90
19282;BMP180;9774;52.034;5.342;2023-02-26T01:44:54;101787.00;;;7.80
19282;BMP180;9774;52.034;5.342;2023-02-26T01:47:28;101797.00;;;7.80
19282;BMP180;9774;52.034;5.342;2023-02-26T01:50:09;101801.00;;;7.80
19282;BMP180;9774;52.034;5.342;2023-02-26T01:53:09;101801.00;;;7.70
19282;BMP180;9774;52.034;5.342;2023-02-26T01:55:42;101803.00;;;7.80
19282;BMP180;9774;52.034;5.342;2023-02-26T01:58:09;101801.00;;;7.80
19282;BMP180;9774;52.034;5.342;2023-02-26T02:00:37;101812.00;;;7.80
19282;BMP180;9774;52.034;5.342;2023-02-26T02:03:06;101797.00;;;7.80
19282;BMP180;9774;52.034;5.342;2023-02-26T02:05:38;101798.00;;;7.70
19282;BMP180;9774;52.034;5.342;2023-02-26T02:08:07;101809.00;;;7.70
19282;BMP180;9774;52.034;5.342;2023-02-26T02:10:35;101816.00;;;7.70
19282;BMP180;9774;52.034;5.342;2023-02-26T02:13:11;101813.00;;;7.70
19282;BMP180;9774;52.034;5.342;2023-02-26T02:15:45;101819.00;;;7.60
19282;BMP180;9774;52.034;5.342;2023-02-26T02:18:21;101826.00;;;7.60
19282;BMP180;9774;52.034;5.342;2023-02-26T02:21:27;101823.00;;;7.50
19282;BMP180;9774;52.034;5.342;2023-02-26T02:24:00;101823.00;;;7.60
19282;BMP180;9774;52.034;5.342;2023-02-26T02:26:48;101824.00;;;7.50
19282;BMP180;9774;52.034;5.342;2023-02-26T02:32:23;101836.00;;;7.50
19282;BMP180;9774;52.034;5.342;2023-02-26T02:34:56;101834.00;;;7.50
19282;BMP180;9774;52.034;5.342;2023-02-26T02:37:28;101838.00;;;7.50
19282;BMP180;9774;52.034;5.342;2023-02-26T02:39:59;101842.00;;;7.50
19282;BMP180;9774;52.034;5.342;2023-02-26T02:42:31;101840.00;;;7.50
19282;BMP180;9774;52.034;5.342;2023-02-26T02:45:04;101843.00;;;7.50
19282;BMP180;9774;52.034;5.342;2023-02-26T02:47:37;101844.00;;;7.50
19282;BMP180;9774;52.034;5.342;2023-02-26T02:50:09;101842.00;;;7.50
19282;BMP180;9774;52.034;5.342;2023-02-26T02:52:42;101851.00;;;7.40
19282;BMP180;9774;52.034;5.342;2023-02-26T02:55:13;101853.00;;;7.40
19282;BMP180;9774;52.034;5.342;2023-02-26T02:57:45;101861.00;;;7.40
19282;BMP180;9774;52.034;5.342;2023-02-26T03:00:17;101858.00;;;7.40
19282;BMP180;9774;52.034;5.342;2023-02-26T03:02:52;101857.00;;;7.40
19282;BMP180;9774;52.034;5.342;2023-02-26T03:05:21;101862.00;;;7.40
19282;BMP180;9774;52.034;5.342;2023-02-26T03:07:52;101871.00;;;7.40
19282;BMP180;9774;52.034;5.342;2023-02-26T03:10:20;101872.00;;;7.40
19282;BMP180;9774;52.034;5.342;2023-02-26T03:12:47;101870.00;;;7.30
19282;BMP180;9774;52.034;5.342;2023-02-26T03:15:16;101878.00;;;7.30
19282;BMP180;9774;52.034;5.342;2023-02-26T03:17:56;101878.00;;;7.20
19282;BMP180;9774;52.034;5.342;2023-02-26T03:20:30;101883.00;;;7.30
19282;BMP180;9774;52.034;5.342;2023-02-26T03:23:04;101887.00;;;7.20
19282;BMP180;9774;52.034;5.342;2023-02-26T03:25:42;101881.00;;;7.20
19282;BMP180;9774;52.034;5.342;2023-02-26T03:28:17;101884.00;;;7.20
19282;BMP180;9774;52.034;5.342;2023-02-26T03:30:49;101882.00;;;7.20
19282;BMP180;9774;52.034;5.342;2023-02-26T03:33:24;101893.00;;;7.10
19282;BMP180;9774;52.034;5.342;2023-02-26T03:35:55;101894.00;;;7.10
19282;BMP180;9774;52.034;5.342;2023-02-26T03:38:35;101901.00;;;7.00
19282;BMP180;9774;52.034;5.342;2023-02-26T03:41:07;101903.00;;;7.10
19282;BMP180;9774;52.034;5.342;2023-02-26T03:43:40;101908.00;;;7.10
19282;BMP180;9774;52.034;5.342;2023-02-26T03:46:13;101906.00;;;7.10
19282;BMP180;9774;52.034;5.342;2023-02-26T03:48:43;101909.00;;;7.10
19282;BMP180;9774;52.034;5.342;2023-02-26T03:51:13;101910.00;;;7.10
19282;BMP180;9774;52.034;5.342;2023-02-26T03:53:46;101912.00;;;7.00
19282;BMP180;9774;52.034;5.342;2023-02-26T03:56:17;101911.00;;;7.00
19282;BMP180;9774;52.034;5.342;2023-02-26T03:58:46;101914.00;;;7.00
19282;BMP180;9774;52.034;5.342;2023-02-26T04:01:17;101923.00;;;7.00
19282;BMP180;9774;52.034;5.342;2023-02-26T04:03:49;101921.00;;;7.00
19282;BMP180;9774;52.034;5.342;2023-02-26T04:06:18;101933.00;;;7.00
19282;BMP180;9774;52.034;5.342;2023-02-26T04:08:46;101927.00;;;7.00
19282;BMP180;9774;52.034;5.342;2023-02-26T04:11:16;101936.00;;;6.90
19282;BMP180;9774;52.034;5.342;2023-02-26T04:13:45;101936.00;;;7.00
19282;BMP180;9774;52.034;5.342;2023-02-26T04:16:13;101933.00;;;7.00
19282;BMP180;9774;52.034;5.342;2023-02-26T04:18:40;101939.00;;;7.00
19282;BMP180;9774;52.034;5.342;2023-02-26T04:21:11;101943.00;;;6.90
19282;BMP180;9774;52.034;5.342;2023-02-26T04:23:39;101947.00;;;6.90
19282;BMP180;9774;52.034;5.342;2023-02-26T04:26:07;101952.00;;;6.90
19282;BMP180;9774;52.034;5.342;2023-02-26T04:28:34;101955.00;;;6.90
19282;BMP180;9774;52.034;5.342;2023-02-26T04:31:03;101958.00;;;6.90
19282;BMP180;9774;52.034;5.342;2023-02-26T04:33:31;101965.00;;;6.90
19282;BMP180;9774;52.034;5.342;2023-02-26T04:35:58;101958.00;;;6.90
19282;BMP180;9774;52.034;5.342;2023-02-26T04:38:27;101968.00;;;6.80
19282;BMP180;9774;52.034;5.342;2023-02-26T04:40:54;101974.00;;;6.90
19282;BMP180;9774;52.034;5.342;2023-02-26T04:43:22;101976.00;;;6.90
19282;BMP180;9774;52.034;5.342;2023-02-26T04:45:50;101984.00;;;6.80
19282;BMP180;9774;52.034;5.342;2023-02-26T04:48:17;101987.00;;;6.80
19282;BMP180;9774;52.034;5.342;2023-02-26T04:50:46;101990.00;;;6.80
19282;BMP180;9774;52.034;5.342;2023-02-26T04:53:13;101985.00;;;6.80
19282;BMP180;9774;52.034;5.342;2023-02-26T04:55:42;101991.00;;;6.80
19282;BMP180;9774;52.034;5.342;2023-02-26T04:58:09;101995.00;;;6.80
19282;BMP180;9774;52.034;5.342;2023-02-26T05:00:36;101999.00;;;6.80
19282;BMP180;9774;52.034;5.342;2023-02-26T05:03:04;101998.00;;;6.80
19282;BMP180;9774;52.034;5.342;2023-02-26T05:05:32;101999.00;;;6.80
19282;BMP180;9774;52.034;5.342;2023-02-26T05:07:59;102001.00;;;6.80
19282;BMP180;9774;52.034;5.342;2023-02-26T05:10:26;102010.00;;;6.80
19282;BMP180;9774;52.034;5.342;2023-02-26T05:12:55;102014.00;;;6.80
19282;BMP180;9774;52.034;5.342;2023-02-26T05:15:22;102017.00;;;6.80
19282;BMP180;9774;52.034;5.342;2023-02-26T05:17:49;102017.00;;;6.70
19282;BMP180;9774;52.034;5.342;2023-02-26T05:20:17;102012.00;;;6.70
19282;BMP180;9774;52.034;5.342;2023-02-26T05:22:44;102019.00;;;6.70
19282;BMP180;9774;52.034;5.342;2023-02-26T05:25:12;102029.00;;;6.70
19282;BMP180;9774;52.034;5.342;2023-02-26T05:27:40;102023.00;;;6.70
19282;BMP180;9774;52.034;5.342;2023-02-26T05:30:12;102035.00;;;6.70
19282;BMP180;9774;52.034;5.342;2023-02-26T05:32:40;102035.00;;;6.70
19282;BMP180;9774;52.034;5.342;2023-02-26T05:35:08;102044.00;;;6.70
19282;BMP180;9774;52.034;5.342;2023-02-26T05:37:36;102040.00;;;6.60
19282;BMP180;9774;52.034;5.342;2023-02-26T05:40:07;102038.00;;;6.60
19282;BMP180;9774;52.034;5.342;2023-02-26T05:42:35;102037.00;;;6.60
19282;BMP180;9774;52.034;5.342;2023-02-26T05:45:03;102044.00;;;6.60
19282;BMP180;9774;52.034;5.342;2023-02-26T05:47:33;102048.00;;;6.60
19282;BMP180;9774;52.034;5.342;2023-02-26T05:50:00;102054.00;;;6.60
19282;BMP180;9774;52.034;5.342;2023-02-26T05:52:28;102063.00;;;6.60
19282;BMP180;9774;52.034;5.342;2023-02-26T05:54:55;102061.00;;;6.50
19282;BMP180;9774;52.034;5.342;2023-02-26T05:57:23;102071.00;;;6.50
19282;BMP180;9774;52.034;5.342;2023-02-26T05:59:50;102072.00;;;6.50
19282;BMP180;9774;52.034;5.342;2023-02-26T06:02:18;102075.00;;;6.50
19282;BMP180;9774;52.034;5.342;2023-02-26T06:04:47;102079.00;;;6.50
19282;BMP180;9774;52.034;5.342;2023-02-26T06:07:14;102089.00;;;6.50
19282;BMP180;9774;52.034;5.342;2023-02-26T06:09:41;102082.00;;;6.40
19282;BMP180;9774;52.034;5.342;2023-02-26T06:12:09;102089.00;;;6.40
19282;BMP180;9774;52.034;5.342;2023-02-26T06:14:36;102086.00;;;6.40
19282;BMP180;9774;52.034;5.342;2023-02-26T06:17:03;102088.00;;;6.40
19282;BMP180;9774;52.034;5.342;2023-02-26T06:19:32;102090.00;;;6.40
19282;BMP180;9774;52.034;5.342;2023-02-26T06:22:00;102087.00;;;6.40
19282;BMP180;9774;52.034;5.342;2023-02-26T06:24:28;102094.00;;;6.40
19282;BMP180;9774;52.034;5.342;2023-02-26T06:26:55;102101.00;;;6.40
19282;BMP180;9774;52.034;5.342;2023-02-26T06:29:22;102105.00;;;6.40
19282;BMP180;9774;52.034;5.342;2023-02-26T06:31:49;102099.00;;;6.40
19282;BMP180;9774;52.034;5.342;2023-02-26T06:34:17;102109.00;;;6.40
19282;BMP180;9774;52.034;5.342;2023-02-26T06:36:44;102134.00;;;6.40
19282;BMP180;9774;52.034;5.342;2023-02-26T06:39:13;102119.00;;;6.30
19282;BMP180;9774;52.034;5.342;2023-02-26T06:41:40;102116.00;;;6.30
19282;BMP180;9774;52.034;5.342;2023-02-26T06:44:08;102121.00;;;6.30
19282;BMP180;9774;52.034;5.342;2023-02-26T06:46:35;102125.00;;;6.30
19282;BMP180;9774;52.034;5.342;2023-02-26T06:49:03;102130.00;;;6.30
19282;BMP180;9774;52.034;5.342;2023-02-26T06:51:30;102140.00;;;6.30
19282;BMP180;9774;52.034;5.342;2023-02-26T06:53:58;102141.00;;;6.30
19282;BMP180;9774;52.034;5.342;2023-02-26T06:56:27;102136.00;;;6.30
19282;BMP180;9774;52.034;5.342;2023-02-26T06:58:55;102143.00;;;6.30
19282;BMP180;9774;52.034;5.342;2023-02-26T07:01:22;102158.00;;;6.30
19282;BMP180;9774;52.034;5.342;2023-02-26T07:03:50;102157.00;;;6.30
19282;BMP180;9774;52.034;5.342;2023-02-26T07:06:18;102166.00;;;6.40
19282;BMP180;9774;52.034;5.342;2023-02-26T07:08:46;102171.00;;;6.40
19282;BMP180;9774;52.034;5.342;2023-02-26T07:11:13;102181.00;;;6.40
19282;BMP180;9774;52.034;5.342;2023-02-26T07:13:42;102175.00;;;6.40
19282;BMP180;9774;52.034;5.342;2023-02-26T07:16:09;102181.00;;;6.40
19282;BMP180;9774;52.034;5.342;2023-02-26T07:18:37;102184.00;;;6.50
19282;BMP180;9774;52.034;5.342;2023-02-26T07:21:05;102188.00;;;6.50
19282;BMP180;9774;52.034;5.342;2023-02-26T07:23:32;102187.00;;;6.50
19282;BMP180;9774;52.034;5.342;2023-02-26T07:26:00;102189.00;;;6.50
19282;BMP180;9774;52.034;5.342;2023-02-26T07:28:28;102183.00;;;6.60
19282;BMP180;9774;52.034;5.342;2023-02-26T07:30:56;102192.00;;;6.60
19282;BMP180;9774;52.034;5.342;2023-02-26T07:33:26;102189.00;;;6.70
19282;BMP180;9774;52.034;5.342;2023-02-26T07:35:53;102194.00;;;6.70
19282;BMP180;9774;52.034;5.342;2023-02-26T07:38:21;102204.00;;;6.70
19282;BMP180;9774;52.034;5.342;2023-02-26T07:40:48;102202.00;;;6.80
19282;BMP180;9774;52.034;5.342;2023-02-26T07:43:15;102205.00;;;6.80
19282;BMP180;9774;52.034;5.342;2023-02-26T07:45:44;102208.00;;;6.80
19282;BMP180;9774;52.034;5.342;2023-02-26T07:48:13;102210.00;;;6.90
19282;BMP180;9774;52.034;5.342;2023-02-26T07:50:40;102220.00;;;6.90
19282;BMP180;9774;52.034;5.342;2023-02-26T07:53:08;102222.00;;;6.90
19282;BMP180;9774;52.034;5.342;2023-02-26T07:55:35;102219.00;;;7.00
19282;BMP180;9774;52.034;5.342;2023-02-26T07:58:02;102224.00;;;7.10
19282;BMP180;9774;52.034;5.342;2023-02-26T08:00:32;102227.00;;;7.10
19282;BMP180;9774;52.034;5.342;2023-02-26T08:03:00;102233.00;;;7.20
19282;BMP180;9774;52.034;5.342;2023-02-26T08:05:28;102234.00;;;7.20
19282;BMP180;9774;52.034;5.342;2023-02-26T08:07:56;102241.00;;;7.30
19282;BMP180;9774;52.034;5.342;2023-02-26T08:10:23;102239.00;;;7.30
19282;BMP180;9774;52.034;5.342;2023-02-26T08:12:51;102243.00;;;7.30
19282;BMP180;9774;52.034;5.342;2023-02-26T08:15:18;102240.00;;;7.40
19282;BMP180;9774;52.034;5.342;2023-02-26T08:17:51;102258.00;;;7.40
19282;BMP180;9774;52.034;5.342;2023-02-26T08:20:19;102259.00;;;7.50
19282;BMP180;9774;52.034;5.342;2023-02-26T08:22:48;102267.00;;;7.50
19282;BMP180;9774;52.034;5.342;2023-02-26T08:25:16;102267.00;;;7.50
19282;BMP180;9774;52.034;5.342;2023-02-26T08:27:44;102277.00;;;7.60
19282;BMP180;9774;52.034;5.342;2023-02-26T08:30:12;102277.00;;;7.70
19282;BMP180;9774;52.034;5.342;2023-02-26T08:32:40;102283.00;;;7.70
19282;BMP180;9774;52.034;5.342;2023-02-26T08:35:08;102284.00;;;7.80
19282;BMP180;9774;52.034;5.342;2023-02-26T08:37:35;102297.00;;;7.80
19282;BMP180;9774;52.034;5.342;2023-02-26T08:40:05;102296.00;;;7.80
19282;BMP180;9774;52.034;5.342;2023-02-26T08:42:34;102302.00;;;7.90
19282;BMP180;9774;52.034;5.342;2023-02-26T08:45:01;102302.00;;;7.90
19282;BMP180;9774;52.034;5.342;2023-02-26T08:47:29;102305.00;;;8.00
19282;BMP180;9774;52.034;5.342;2023-02-26T08:49:56;102305.00;;;8.00
19282;BMP180;9774;52.034;5.342;2023-02-26T08:52:24;102308.00;;;8.00
19282;BMP180;9774;52.034;5.342;2023-02-26T08:54:51;102312.00;;;8.00
19282;BMP180;9774;52.034;5.342;2023-02-26T08:57:21;102316.00;;;8.10
19282;BMP180;9774;52.034;5.342;2023-02-26T08:59:48;102306.00;;;8.10
19282;BMP180;9774;52.034;5.342;2023-02-26T09:02:15;102316.00;;;8.20
19282;BMP180;9774;52.034;5.342;2023-02-26T09:04:42;102325.00;;;8.20
19282;BMP180;9774;52.034;5.342;2023-02-26T09:07:10;102335.00;;;8.30
19282;BMP180;9774;52.034;5.342;2023-02-26T09:09:37;102333.00;;;8.40
19282;BMP180;9774;52.034;5.342;2023-02-26T09:12:05;102330.00;;;8.40
19282;BMP180;9774;52.034;5.342;2023-02-26T09:14:33;102338.00;;;8.50
19282;BMP180;9774;52.034;5.342;2023-02-26T09:17:01;102335.00;;;8.60
19282;BMP180;9774;52.034;5.342;2023-02-26T09:19:28;102342.00;;;8.70
19282;BMP180;9774;52.034;5.342;2023-02-26T09:21:55;102341.00;;;8.80
19282;BMP180;9774;52.034;5.342;2023-02-26T09:24:22;102340.00;;;8.90
19282;BMP180;9774;52.034;5.342;2023-02-26T09:26:50;102345.00;;;8.90
19282;BMP180;9774;52.034;5.342;2023-02-26T09:29:17;102336.00;;;9.00
19282;BMP180;9774;52.034;5.342;2023-02-26T09:31:46;102346.00;;;9.00
19282;BMP180;9774;52.034;5.342;2023-02-26T09:34:13;102349.00;;;9.10
19282;BMP180;9774;52.034;5.342;2023-02-26T09:36:40;102347.00;;;9.20
19282;BMP180;9774;52.034;5.342;2023-02-26T09:39:08;102350.00;;;9.20
19282;BMP180;9774;52.034;5.342;2023-02-26T09:41:38;102352.00;;;9.20
19282;BMP180;9774;52.034;5.342;2023-02-26T09:44:15;102346.00;;;9.20
19282;BMP180;9774;52.034;5.342;2023-02-26T09:46:54;102357.00;;;9.30
19282;BMP180;9774;52.034;5.342;2023-02-26T09:49:30;102357.00;;;9.40
19282;BMP180;9774;52.034;5.342;2023-02-26T09:52:03;102350.00;;;9.40
19282;BMP180;9774;52.034;5.342;2023-02-26T09:54:41;102358.00;;;9.50
19282;BMP180;9774;52.034;5.342;2023-02-26T09:57:12;102368.00;;;9.60
19282;BMP180;9774;52.034;5.342;2023-02-26T09:59:41;102364.00;;;9.60
19282;BMP180;9774;52.034;5.342;2023-02-26T10:02:15;102361.00;;;9.60
19282;BMP180;9774;52.034;5.342;2023-02-26T10:04:50;102376.00;;;9.70
19282;BMP180;9774;52.034;5.342;2023-02-26T10:07:28;102375.00;;;9.80
19282;BMP180;9774;52.034;5.342;2023-02-26T10:10:14;102393.00;;;9.80
19282;BMP180;9774;52.034;5.342;2023-02-26T10:12:44;102384.00;;;9.90
19282;BMP180;9774;52.034;5.342;2023-02-26T10:15:15;102391.00;;;10.00
19282;BMP180;9774;52.034;5.342;2023-02-26T10:18:03;102398.00;;;10.00
19282;BMP180;9774;52.034;5.342;2023-02-26T10:20:38;102395.00;;;10.00
19282;BMP180;9774;52.034;5.342;2023-02-26T10:23:14;102393.00;;;10.10
19282;BMP180;9774;52.034;5.342;2023-02-26T10:25:47;102398.00;;;10.20
19282;BMP180;9774;52.034;5.342;2023-02-26T10:28:38;102391.00;;;10.20
19282;BMP180;9774;52.034;5.342;2023-02-26T10:31:14;102400.00;;;10.30
19282;BMP180;9774;52.034;5.342;2023-02-26T10:33:49;102406.00;;;10.30
19282;BMP180;9774;52.034;5.342;2023-02-26T10:36:26;102396.00;;;10.40
19282;BMP180;9774;52.034;5.342;2023-02-26T10:39:02;102409.00;;;10.50
19282;BMP180;9774;52.034;5.342;2023-02-26T10:41:32;102405.00;;;10.60
19282;BMP180;9774;52.034;5.342;2023-02-26T10:44:05;102417.00;;;10.70
19282;BMP180;9774;52.034;5.342;2023-02-26T10:46:43;102426.00;;;10.80
19282;BMP180;9774;52.034;5.342;2023-02-26T10:49:31;102411.00;;;10.80
19282;BMP180;9774;52.034;5.342;2023-02-26T10:52:10;102411.00;;;10.90
19282;BMP180;9774;52.034;5.342;2023-02-26T10:54:43;102430.00;;;11.10
19282;BMP180;9774;52.034;5.342;2023-02-26T10:57:17;102426.00;;;11.10
19282;BMP180;9774;52.034;5.342;2023-02-26T10:59:46;102419.00;;;11.20
19282;BMP180;9774;52.034;5.342;2023-02-26T11:02:31;102430.00;;;11.20
19282;BMP180;9774;52.034;5.342;2023-02-26T11:05:01;102423.00;;;11.40
19282;BMP180;9774;52.034;5.342;2023-02-26T11:07:30;102437.00;;;11.40
19282;BMP180;9774;52.034;5.342;2023-02-26T11:09:58;102431.00;;;11.40
19282;BMP180;9774;52.034;5.342;2023-02-26T11:12:26;102428.00;;;11.50
19282;BMP180;9774;52.034;5.342;2023-02-26T11:14:53;102436.00;;;11.60
19282;BMP180;9774;52.034;5.342;2023-02-26T11:17:22;102441.00;;;11.60
19282;BMP180;9774;52.034;5.342;2023-02-26T11:19:56;102435.00;;;11.60
19282;BMP180;9774;52.034;5.342;2023-02-26T11:22:31;102429.00;;;11.70
19282;BMP180;9774;52.034;5.342;2023-02-26T11:24:59;102431.00;;;11.80
19282;BMP180;9774;52.034;5.342;2023-02-26T11:27:31;102429.00;;;11.80
19282;BMP180;9774;52.034;5.342;2023-02-26T11:30:05;102428.00;;;11.80
19282;BMP180;9774;52.034;5.342;2023-02-26T11:32:34;102423.00;;;11.90
19282;BMP180;9774;52.034;5.342;2023-02-26T11:35:02;102423.00;;;12.00
19282;BMP180;9774;52.034;5.342;2023-02-26T11:37:37;102431.00;;;12.00
19282;BMP180;9774;52.034;5.342;2023-02-26T11:40:06;102441.00;;;12.00
19282;BMP180;9774;52.034;5.342;2023-02-26T11:42:44;102433.00;;;12.00
19282;BMP180;9774;52.034;5.342;2023-02-26T11:45:16;102435.00;;;12.00
19282;BMP180;9774;52.034;5.342;2023-02-26T11:47:44;102424.00;;;12.10
19282;BMP180;9774;52.034;5.342;2023-02-26T11:50:14;102421.00;;;12.10
19282;BMP180;9774;52.034;5.342;2023-02-26T11:52:47;102417.00;;;12.10
19282;BMP180;9774;52.034;5.342;2023-02-26T11:55:27;102420.00;;;12.10
19282;BMP180;9774;52.034;5.342;2023-02-26T11:57:55;102418.00;;;12.10
19282;BMP180;9774;52.034;5.342;2023-02-26T12:00:25;102430.00;;;12.10
19282;BMP180;9774;52.034;5.342;2023-02-26T12:02:59;102422.00;;;12.00
19282;BMP180;9774;52.034;5.342;2023-02-26T12:05:27;102418.00;;;12.10
19282;BMP180;9774;52.034;5.342;2023-02-26T12:07:55;102415.00;;;12.10
19282;BMP180;9774;52.034;5.342;2023-02-26T12:10:38;102416.00;;;12.10
19282;BMP180;9774;52.034;5.342;2023-02-26T12:13:13;102416.00;;;12.20
19282;BMP180;9774;52.034;5.342;2023-02-26T12:15:49;102416.00;;;12.30
19282;BMP180;9774;52.034;5.342;2023-02-26T12:18:38;102415.00;;;12.30
19282;BMP180;9774;52.034;5.342;2023-02-26T12:21:19;102425.00;;;12.40
19282;BMP180;9774;52.034;5.342;2023-02-26T12:27:01;102422.00;;;12.40
19282;BMP180;9774;52.034;5.342;2023-02-26T12:29:51;102424.00;;;12.40
19282;BMP180;9774;52.034;5.342;2023-02-26T12:32:39;102418.00;;;12.40
19282;BMP180;9774;52.034;5.342;2023-02-26T12:35:35;102413.00;;;12.40
19282;BMP180;9774;52.034;5.342;2023-02-26T12:38:15;102417.00;;;12.50
19282;BMP180;9774;52.034;5.342;2023-02-26T12:40:59;102406.00;;;12.50
19282;BMP180;9774;52.034;5.342;2023-02-26T12:43:35;102418.00;;;12.60
19282;BMP180;9774;52.034;5.342;2023-02-26T12:46:15;102421.00;;;12.60
19282;BMP180;9774;52.034;5.342;2023-02-26T12:49:04;102411.00;;;12.60
19282;BMP180;9774;52.034;5.342;2023-02-26T12:51:42;102415.00;;;12.70
19282;BMP180;9774;52.034;5.342;2023-02-26T12:54:40;102416.00;;;12.70
19282;BMP180;9774;52.034;5.342;2023-02-26T12:57:37;102389.00;;;12.70
19282;BMP180;9774;52.034;5.342;2023-02-26T13:00:41;102406.00;;;12.80
19282;BMP180;9774;52.034;5.342;2023-02-26T13:03:54;102403.00;;;12.80
19282;BMP180;9774;52.034;5.342;2023-02-26T13:06:43;102407.00;;;12.90
19282;BMP180;9774;52.034;5.342;2023-02-26T13:09:31;102417.00;;;13.10
19282;BMP180;9774;52.034;5.342;2023-02-26T13:12:12;102417.00;;;13.20
19282;BMP180;9774;52.034;5.342;2023-02-26T13:14:52;102417.00;;;13.30
19282;BMP180;9774;52.034;5.342;2023-02-26T13:17:26;102414.00;;;13.40
19282;BMP180;9774;52.034;5.342;2023-02-26T13:19:59;102425.00;;;13.60
19282;BMP180;9774;52.034;5.342;2023-02-26T13:22:31;102424.00;;;13.80
19282;BMP180;9774;52.034;5.342;2023-02-26T13:25:03;102423.00;;;13.90
19282;BMP180;9774;52.034;5.342;2023-02-26T13:27:33;102430.00;;;14.20
19282;BMP180;9774;52.034;5.342;2023-02-26T13:30:19;102417.00;;;14.20
19282;BMP180;9774;52.034;5.342;2023-02-26T13:32:49;102411.00;;;14.70
19282;BMP180;9774;52.034;5.342;2023-02-26T13:35:20;102416.00;;;15.30
19282;BMP180;9774;52.034;5.342;2023-02-26T13:37:50;102407.00;;;15.90
19282;BMP180;9774;52.034;5.342;2023-02-26T13:40:43;102415.00;;;16.60
19282;BMP180;9774;52.034;5.342;2023-02-26T13:43:27;102422.00;;;17.40
19282;BMP180;9774;52.034;5.342;2023-02-26T13:46:11;102414.00;;;18.10
19282;BMP180;9774;52.034;5.342;2023-02-26T13:48:53;102419.00;;;18.90
19282;BMP180;9774;52.034;5.342;2023-02-26T13:51:29;102422.00;;;19.50
19282;BMP180;9774;52.034;5.342;2023-02-26T13:53:59;102420.00;;;20.00
19282;BMP180;9774;52.034;5.342;2023-02-26T13:59:46;102425.00;;;20.90
19282;BMP180;9774;52.034;5.342;2023-02-26T14:02:44;102422.00;;;21.30
19282;BMP180;9774;52.034;5.342;2023-02-26T14:05:34;102432.00;;;21.70
19282;BMP180;9774;52.034;5.342;2023-02-26T14:10:58;102429.00;;;22.50
19282;BMP180;9774;52.034;5.342;2023-02-26T14:13:34;102438.00;;;22.70
19282;BMP180;9774;52.034;5.342;2023-02-26T14:16:10;102437.00;;;23.00
19282;BMP180;9774;52.034;5.342;2023-02-26T14:18:49;102434.00;;;23.30
19282;BMP180;9774;52.034;5.342;2023-02-26T14:21:47;102439.00;;;23.50
19282;BMP180;9774;52.034;5.342;2023-02-26T14:24:18;102446.00;;;23.80
19282;BMP180;9774;52.034;5.342;2023-02-26T14:26:48;102446.00;;;23.90
19282;BMP180;9774;52.034;5.342;2023-02-26T14:29:20;102445.00;;;24.10
19282;BMP180;9774;52.034;5.342;2023-02-26T14:32:03;102437.00;;;24.30
19282;BMP180;9774;52.034;5.342;2023-02-26T14:34:35;102449.00;;;24.50
19282;BMP180;9774;52.034;5.342;2023-02-26T14:37:06;102442.00;;;24.40
19282;BMP180;9774;52.034;5.342;2023-02-26T14:39:37;102443.00;;;23.90
19282;BMP180;9774;52.034;5.342;2023-02-26T14:42:07;102443.00;;;23.40
19282;BMP180;9774;52.034;5.342;2023-02-26T14:44:39;102439.00;;;22.70
19282;BMP180;9774;52.034;5.342;2023-02-26T14:47:09;102451.00;;;22.20
19282;BMP180;9774;52.034;5.342;2023-02-26T14:49:41;102452.00;;;21.50
19282;BMP180;9774;52.034;5.342;2023-02-26T14:52:27;102448.00;;;20.80
19282;BMP180;9774;52.034;5.342;2023-02-26T14:55:26;102445.00;;;20.00
19282;BMP180;9774;52.034;5.342;2023-02-26T14:58:06;102440.00;;;19.40